createdAt,value
2017-03-16T00:00:20.131Z,0
2017-03-16T00:01:20.117Z,0
2017-03-16T00:02:20.071Z,0
2017-03-16T00:03:19.771Z,0
2017-03-16T00:04:20.036Z,0
2017-03-16T00:05:20.015Z,0
2017-03-16T00:06:20.020Z,0
2017-03-16T00:07:19.389Z,0
2017-03-16T00:08:19.659Z,0
2017-03-16T00:09:19.960Z,0
2017-03-16T00:10:19.635Z,0
2017-03-16T00:11:19.911Z,0
2017-03-16T00:12:19.571Z,0
2017-03-16T00:13:19.900Z,0
2017-03-16T00:14:19.857Z,0
2017-03-16T00:15:19.555Z,0
2017-03-16T00:16:19.823Z,0
2017-03-16T00:17:19.192Z,0
2017-03-16T00:18:19.759Z,0
2017-03-16T00:19:19.745Z,0
2017-03-16T00:20:19.713Z,0
2017-03-16T00:21:19.715Z,0
2017-03-16T00:22:19.683Z,0
2017-03-16T00:23:19.688Z,0
2017-03-16T00:24:19.658Z,0
2017-03-16T00:25:19.630Z,0
2017-03-16T00:26:19.610Z,0
2017-03-16T00:27:19.606Z,0
2017-03-16T00:28:19.264Z,0
2017-03-16T00:29:19.265Z,0
2017-03-16T00:30:19.523Z,0
2017-03-16T00:31:19.240Z,0
2017-03-16T00:32:19.516Z,0
2017-03-16T00:33:19.177Z,0
2017-03-16T00:34:19.165Z,0
2017-03-16T00:35:19.151Z,0
2017-03-16T00:36:19.429Z,0
2017-03-16T00:37:19.397Z,0
2017-03-16T00:38:19.380Z,0
2017-03-16T00:39:19.383Z,0
2017-03-16T00:40:19.352Z,0
2017-03-16T00:41:19.344Z,0
2017-03-16T00:42:19.323Z,0
2017-03-16T00:43:19.303Z,0
2017-03-16T00:44:19.277Z,0
2017-03-16T00:45:19.246Z,0
2017-03-16T00:46:19.240Z,0
2017-03-16T00:47:19.222Z,0
2017-03-16T00:48:19.186Z,0
2017-03-16T00:49:18.886Z,0
2017-03-16T00:50:18.903Z,0
2017-03-16T00:51:19.158Z,0
2017-03-16T00:52:19.122Z,0
2017-03-16T00:53:18.810Z,0
2017-03-16T00:54:19.096Z,0
2017-03-16T00:55:19.074Z,0
2017-03-16T00:56:19.040Z,0
2017-03-16T00:57:19.036Z,0
2017-03-16T00:58:19.013Z,0
2017-03-16T00:59:18.394Z,0
2017-03-16T01:00:18.960Z,0
2017-03-16T01:01:18.944Z,0
2017-03-16T01:02:18.940Z,0
2017-03-16T01:03:18.907Z,0
2017-03-16T01:04:18.582Z,0
2017-03-16T01:05:18.889Z,0
2017-03-16T01:06:18.875Z,0
2017-03-16T01:07:18.855Z,0
2017-03-16T01:08:18.845Z,0
2017-03-16T01:09:18.787Z,0
2017-03-16T01:10:18.494Z,0
2017-03-16T01:11:18.778Z,0
2017-03-16T01:12:18.145Z,0
2017-03-16T01:13:18.738Z,0
2017-03-16T01:14:18.738Z,0
2017-03-16T01:15:18.685Z,0
2017-03-16T01:16:18.363Z,0
2017-03-16T01:17:18.665Z,0
2017-03-16T01:18:18.622Z,0
2017-03-16T01:19:18.634Z,0
2017-03-16T01:20:18.594Z,0
2017-03-16T01:21:18.593Z,0
2017-03-16T01:22:18.563Z,0
2017-03-16T01:23:18.536Z,0
2017-03-16T01:24:18.550Z,0
2017-03-16T01:25:18.504Z,0
2017-03-16T01:26:18.476Z,0
2017-03-16T01:27:18.161Z,0
2017-03-16T01:28:18.438Z,0
2017-03-16T01:29:18.431Z,0
2017-03-16T01:30:18.102Z,0
2017-03-16T01:31:18.374Z,0
2017-03-16T01:32:18.368Z,0
2017-03-16T01:33:18.337Z,0
2017-03-16T01:34:18.315Z,0
2017-03-16T01:35:18.340Z,0
2017-03-16T01:36:18.295Z,0
2017-03-16T01:37:18.278Z,0
2017-03-16T01:38:17.979Z,0
2017-03-16T01:39:18.246Z,0
2017-03-16T01:40:17.930Z,0
2017-03-16T01:41:18.200Z,0
2017-03-16T01:42:18.188Z,0
2017-03-16T01:43:18.175Z,0
2017-03-16T01:44:18.132Z,0
2017-03-16T01:45:18.116Z,0
2017-03-16T01:46:18.101Z,0
2017-03-16T01:47:18.108Z,0
2017-03-16T01:48:18.068Z,0
2017-03-16T01:49:18.062Z,0
2017-03-16T01:50:18.020Z,0
2017-03-16T01:51:18.023Z,0
2017-03-16T01:52:18.007Z,0
2017-03-16T01:53:17.986Z,0
2017-03-16T01:54:17.960Z,0
2017-03-16T01:55:17.920Z,0
2017-03-16T01:56:17.940Z,0
2017-03-16T01:57:17.903Z,0
2017-03-16T01:58:17.574Z,0
2017-03-16T01:59:17.863Z,0
2017-03-16T02:00:17.844Z,0
2017-03-16T02:01:17.797Z,0
2017-03-16T02:02:17.504Z,0
2017-03-16T02:03:17.789Z,0
2017-03-16T02:04:17.760Z,0
2017-03-16T02:05:17.469Z,0
2017-03-16T02:06:17.449Z,0
2017-03-16T02:07:17.716Z,0
2017-03-16T02:08:17.669Z,0
2017-03-16T02:09:17.352Z,0
2017-03-16T02:10:17.646Z,0
2017-03-16T02:11:17.345Z,0
2017-03-16T02:12:17.012Z,0
2017-03-16T02:13:17.609Z,0
2017-03-16T02:14:17.268Z,0
2017-03-16T02:15:17.574Z,0
2017-03-16T02:16:17.237Z,0
2017-03-16T02:17:17.541Z,0
2017-03-16T02:18:17.213Z,0
2017-03-16T02:19:17.182Z,0
2017-03-16T02:20:16.862Z,0
2017-03-16T02:21:17.450Z,0
2017-03-16T02:22:17.431Z,0
2017-03-16T02:23:17.410Z,0
2017-03-16T02:24:17.393Z,0
2017-03-16T02:25:17.383Z,0
2017-03-16T02:26:17.060Z,0
2017-03-16T02:27:17.333Z,0
2017-03-16T02:28:17.330Z,0
2017-03-16T02:29:17.320Z,0
2017-03-16T02:30:17.293Z,0
2017-03-16T02:31:17.252Z,0
2017-03-16T02:32:16.928Z,0
2017-03-16T02:33:17.229Z,0
2017-03-16T02:34:17.228Z,0
2017-03-16T02:35:17.200Z,0
2017-03-16T02:36:16.865Z,0
2017-03-16T02:37:16.847Z,0
2017-03-16T02:38:16.858Z,0
2017-03-16T02:39:17.091Z,0
2017-03-16T02:40:17.097Z,0
2017-03-16T02:41:17.100Z,0
2017-03-16T02:42:17.052Z,0
2017-03-16T02:43:17.025Z,0
2017-03-16T02:44:16.709Z,0
2017-03-16T02:45:16.997Z,0
2017-03-16T02:46:16.676Z,0
2017-03-16T02:47:16.655Z,0
2017-03-16T02:48:16.949Z,0
2017-03-16T02:49:16.933Z,0
2017-03-16T02:50:16.606Z,0
2017-03-16T02:51:16.906Z,0
2017-03-16T02:52:16.881Z,0
2017-03-16T02:53:16.867Z,0
2017-03-16T02:54:16.828Z,0
2017-03-16T02:55:16.814Z,0
2017-03-16T02:56:16.806Z,0
2017-03-16T02:57:16.792Z,0
2017-03-16T02:58:16.774Z,0
2017-03-16T02:59:16.737Z,0
2017-03-16T03:00:16.421Z,0
2017-03-16T03:01:16.409Z,0
2017-03-16T03:02:16.699Z,0
2017-03-16T03:03:16.672Z,0
2017-03-16T03:04:16.368Z,0
2017-03-16T03:05:16.037Z,0
2017-03-16T03:06:16.620Z,0
2017-03-16T03:07:16.618Z,0
2017-03-16T03:08:16.601Z,0
2017-03-16T03:09:16.566Z,0
2017-03-16T03:10:15.971Z,0
2017-03-16T03:11:16.552Z,0
2017-03-16T03:12:16.523Z,0
2017-03-16T03:13:16.520Z,0
2017-03-16T03:14:16.164Z,0
2017-03-16T03:15:16.471Z,0
2017-03-16T03:16:16.156Z,0
2017-03-16T03:17:16.456Z,0
2017-03-16T03:18:16.397Z,0
2017-03-16T03:19:16.420Z,0
2017-03-16T03:20:16.391Z,0
2017-03-16T03:21:16.394Z,0
2017-03-16T03:22:16.350Z,0
2017-03-16T03:23:16.027Z,0
2017-03-16T03:24:16.006Z,0
2017-03-16T03:25:15.998Z,0
2017-03-16T03:26:16.279Z,0
2017-03-16T03:27:16.265Z,0
2017-03-16T03:28:16.233Z,0
2017-03-16T03:29:15.940Z,0
2017-03-16T03:30:15.000Z,0
2017-03-16T03:31:16.207Z,0
2017-03-16T03:32:15.863Z,0
2017-03-16T03:33:15.859Z,0
2017-03-16T03:34:15.834Z,0
2017-03-16T03:35:16.131Z,0
2017-03-16T03:36:16.097Z,0
2017-03-16T03:37:16.073Z,0
2017-03-16T03:38:15.767Z,0
2017-03-16T03:39:15.745Z,0
2017-03-16T03:40:16.017Z,0
2017-03-16T03:41:16.043Z,0
2017-03-16T03:42:15.999Z,0
2017-03-16T03:43:15.691Z,0
2017-03-16T03:44:15.673Z,0
2017-03-16T03:45:15.655Z,0
2017-03-16T03:46:15.931Z,0
2017-03-16T03:47:15.611Z,0
2017-03-16T03:48:15.890Z,0
2017-03-16T03:49:15.875Z,0
2017-03-16T03:50:15.889Z,0
2017-03-16T03:51:15.534Z,0
2017-03-16T03:52:15.838Z,0
2017-03-16T03:53:15.827Z,0
2017-03-16T03:54:15.782Z,0
2017-03-16T03:55:15.805Z,0
2017-03-16T03:56:15.462Z,0
2017-03-16T03:57:15.728Z,0
2017-03-16T03:58:15.722Z,0
2017-03-16T03:59:15.681Z,0
2017-03-16T04:00:15.671Z,0
2017-03-16T04:01:15.654Z,0
2017-03-16T04:02:15.671Z,0
2017-03-16T04:03:15.616Z,0
2017-03-16T04:04:15.314Z,0
2017-03-16T04:05:15.309Z,0
2017-03-16T04:06:15.591Z,0
2017-03-16T04:07:15.572Z,0
2017-03-16T04:08:15.561Z,0
2017-03-16T04:09:15.526Z,0
2017-03-16T04:10:15.210Z,0
2017-03-16T04:11:15.496Z,0
2017-03-16T04:12:15.182Z,0
2017-03-16T04:13:15.463Z,0
2017-03-16T04:14:15.460Z,0
2017-03-16T04:15:15.126Z,0
2017-03-16T04:16:15.385Z,0
2017-03-16T04:17:15.076Z,0
2017-03-16T04:18:15.067Z,0
2017-03-16T04:19:15.052Z,0
2017-03-16T04:20:15.024Z,0
2017-03-16T04:21:15.316Z,0
2017-03-16T04:22:14.994Z,0
2017-03-16T04:23:15.300Z,0
2017-03-16T04:24:14.961Z,0
2017-03-16T04:25:15.252Z,0
2017-03-16T04:26:14.937Z,0
2017-03-16T04:27:15.195Z,0
2017-03-16T04:28:15.197Z,0
2017-03-16T04:29:15.197Z,0
2017-03-16T04:30:15.176Z,0
2017-03-16T04:31:15.130Z,0
2017-03-16T04:32:15.139Z,0
2017-03-16T04:33:15.083Z,0
2017-03-16T04:34:15.105Z,0
2017-03-16T04:35:15.051Z,0
2017-03-16T04:36:14.767Z,0
2017-03-16T04:37:14.722Z,0
2017-03-16T04:38:15.016Z,0
2017-03-16T04:39:15.008Z,0
2017-03-16T04:40:14.688Z,0
2017-03-16T04:41:14.970Z,0
2017-03-16T04:42:14.969Z,0
2017-03-16T04:43:14.920Z,0
2017-03-16T04:44:14.609Z,0
2017-03-16T04:45:14.892Z,0
2017-03-16T04:46:14.873Z,0
2017-03-16T04:47:14.879Z,0
2017-03-16T04:48:14.516Z,0
2017-03-16T04:49:14.837Z,0
2017-03-16T04:50:14.795Z,0
2017-03-16T04:51:14.784Z,0
2017-03-16T04:52:14.165Z,0
2017-03-16T04:53:14.160Z,0
2017-03-16T04:54:14.141Z,0
2017-03-16T04:55:14.713Z,0
2017-03-16T04:56:14.087Z,0
2017-03-16T04:57:14.688Z,0
2017-03-16T04:58:14.337Z,0
2017-03-16T04:59:14.639Z,0
2017-03-16T05:00:14.638Z,0
2017-03-16T05:01:14.314Z,0
2017-03-16T05:02:14.603Z,0
2017-03-16T05:03:14.563Z,0
2017-03-16T05:04:14.552Z,0
2017-03-16T05:05:14.537Z,0
2017-03-16T05:06:14.521Z,0
2017-03-16T05:07:14.515Z,0
2017-03-16T05:08:14.493Z,0
2017-03-16T05:09:14.185Z,0
2017-03-16T05:10:14.137Z,0
2017-03-16T05:11:14.133Z,0
2017-03-16T05:12:14.407Z,0
2017-03-16T05:13:14.402Z,5
2017-03-16T05:14:14.366Z,5
2017-03-16T05:15:14.366Z,5
2017-03-16T05:16:14.343Z,5
2017-03-16T05:17:14.317Z,10
2017-03-16T05:18:14.003Z,10
2017-03-16T05:19:14.279Z,10
2017-03-16T05:20:14.264Z,15
2017-03-16T05:21:14.249Z,15
2017-03-16T05:22:14.257Z,15
2017-03-16T05:23:14.229Z,20
2017-03-16T05:24:13.903Z,20
2017-03-16T05:25:13.881Z,25
2017-03-16T05:26:14.182Z,25
2017-03-16T05:27:13.545Z,30
2017-03-16T05:28:13.826Z,35
2017-03-16T05:29:14.126Z,40
2017-03-16T05:30:14.099Z,45
2017-03-16T05:31:14.082Z,50
2017-03-16T05:32:14.086Z,50
2017-03-16T05:33:14.065Z,55
2017-03-16T05:34:14.027Z,60
2017-03-16T05:35:14.032Z,65
2017-03-16T05:36:13.701Z,65
2017-03-16T05:37:13.689Z,65
2017-03-16T05:38:13.940Z,70
2017-03-16T05:39:13.637Z,75
2017-03-16T05:40:13.631Z,80
2017-03-16T05:41:13.589Z,85
2017-03-16T05:42:13.278Z,90
2017-03-16T05:43:13.860Z,100
2017-03-16T05:44:13.557Z,130
2017-03-16T05:45:13.826Z,135
2017-03-16T05:46:13.226Z,140
2017-03-16T05:47:13.810Z,165
2017-03-16T05:48:13.499Z,190
2017-03-16T05:49:13.453Z,210
2017-03-16T05:50:13.472Z,205
2017-03-16T05:51:13.420Z,225
2017-03-16T05:52:13.398Z,235
2017-03-16T05:53:13.393Z,240
2017-03-16T05:54:13.381Z,240
2017-03-16T05:55:13.640Z,225
2017-03-16T05:56:13.629Z,195
2017-03-16T05:57:13.642Z,185
2017-03-16T05:58:13.615Z,195
2017-03-16T05:59:13.570Z,195
2017-03-16T06:00:13.248Z,200
2017-03-16T06:01:13.544Z,205
2017-03-16T06:02:13.245Z,210
2017-03-16T06:03:13.499Z,215
2017-03-16T06:04:13.503Z,220
2017-03-16T06:05:13.462Z,225
2017-03-16T06:06:13.469Z,225
2017-03-16T06:07:13.128Z,235
2017-03-16T06:08:13.406Z,240
2017-03-16T06:09:13.408Z,245
2017-03-16T06:10:13.388Z,250
2017-03-16T06:11:13.371Z,250
2017-03-16T06:12:13.051Z,255
2017-03-16T06:13:13.331Z,265
2017-03-16T06:14:13.318Z,265
2017-03-16T06:15:12.997Z,270
2017-03-16T06:16:13.280Z,275
2017-03-16T06:17:13.282Z,275
2017-03-16T06:18:13.253Z,280
2017-03-16T06:19:13.233Z,290
2017-03-16T06:20:13.221Z,355
2017-03-16T06:21:12.897Z,490
2017-03-16T06:22:13.205Z,585
2017-03-16T06:23:13.183Z,590
2017-03-16T06:24:13.167Z,640
2017-03-16T06:25:12.841Z,690
2017-03-16T06:26:13.116Z,670
2017-03-16T06:27:13.115Z,705
2017-03-16T06:28:13.062Z,750
2017-03-16T06:29:13.084Z,785
2017-03-16T06:30:13.039Z,800
2017-03-16T06:31:13.029Z,805
2017-03-16T06:32:13.025Z,845
2017-03-16T06:33:13.004Z,905
2017-03-16T06:34:12.964Z,895
2017-03-16T06:35:12.983Z,890
2017-03-16T06:36:12.963Z,920
2017-03-16T06:37:12.949Z,660
2017-03-16T06:38:12.923Z,925
2017-03-16T06:39:12.910Z,900
2017-03-16T06:40:12.277Z,775
2017-03-16T06:41:12.885Z,605
2017-03-16T06:42:12.241Z,600
2017-03-16T06:43:12.558Z,585
2017-03-16T06:44:12.815Z,525
2017-03-16T06:45:12.489Z,520
2017-03-16T06:46:12.507Z,480
2017-03-16T06:47:12.762Z,505
2017-03-16T06:48:12.759Z,500
2017-03-16T06:49:12.756Z,490
2017-03-16T06:50:12.751Z,550
2017-03-16T06:51:12.704Z,620
2017-03-16T06:52:12.392Z,710
2017-03-16T06:53:12.658Z,780
2017-03-16T06:54:12.650Z,1255
2017-03-16T06:55:12.637Z,1515
2017-03-16T06:56:12.616Z,1705
2017-03-16T06:57:12.618Z,1600
2017-03-16T06:58:12.291Z,1490
2017-03-16T06:59:12.593Z,1105
2017-03-16T07:00:11.944Z,835
2017-03-16T07:01:12.546Z,830
2017-03-16T07:02:12.254Z,840
2017-03-16T07:03:12.512Z,840
2017-03-16T07:04:12.518Z,820
2017-03-16T07:05:11.875Z,810
2017-03-16T07:06:12.486Z,790
2017-03-16T07:07:12.156Z,790
2017-03-16T07:08:12.150Z,790
2017-03-16T07:09:12.431Z,790
2017-03-16T07:10:12.106Z,785
2017-03-16T07:11:12.393Z,785
2017-03-16T07:12:12.062Z,795
2017-03-16T07:13:12.353Z,795
2017-03-16T07:14:11.730Z,800
2017-03-16T07:15:11.741Z,805
2017-03-16T07:16:11.415Z,815
2017-03-16T07:17:12.287Z,815
2017-03-16T07:18:11.994Z,820
2017-03-16T07:19:12.271Z,830
2017-03-16T07:20:11.943Z,840
2017-03-16T07:21:12.220Z,845
2017-03-16T07:22:11.922Z,850
2017-03-16T07:23:11.926Z,860
2017-03-16T07:24:12.231Z,875
2017-03-16T07:25:11.875Z,890
2017-03-16T07:26:12.183Z,905
2017-03-16T07:27:11.856Z,915
2017-03-16T07:28:11.531Z,925
2017-03-16T07:29:12.151Z,935
2017-03-16T07:30:11.803Z,950
2017-03-16T07:31:12.092Z,950
2017-03-16T07:32:11.789Z,960
2017-03-16T07:33:11.769Z,970
2017-03-16T07:34:11.774Z,980
2017-03-16T07:35:12.056Z,995
2017-03-16T07:36:11.727Z,995
2017-03-16T07:37:12.024Z,1015
2017-03-16T07:38:12.001Z,1050
2017-03-16T07:39:11.993Z,1065
2017-03-16T07:40:11.692Z,1085
2017-03-16T07:41:11.058Z,1095
2017-03-16T07:42:11.956Z,1100
2017-03-16T07:43:11.340Z,1100
2017-03-16T07:44:11.942Z,1110
2017-03-16T07:45:11.331Z,1120
2017-03-16T07:46:11.913Z,1125
2017-03-16T07:47:11.894Z,1135
2017-03-16T07:48:11.565Z,1140
2017-03-16T07:49:11.577Z,1145
2017-03-16T07:50:11.565Z,1135
2017-03-16T07:51:11.842Z,1125
2017-03-16T07:52:11.533Z,1125
2017-03-16T07:53:11.800Z,1125
2017-03-16T07:54:11.811Z,1110
2017-03-16T07:55:11.778Z,1100
2017-03-16T07:56:11.758Z,1100
2017-03-16T07:57:11.749Z,1135
2017-03-16T07:58:11.738Z,1185
2017-03-16T07:59:11.416Z,1235
2017-03-16T08:00:11.392Z,1350
2017-03-16T08:01:11.685Z,1410
2017-03-16T08:02:11.667Z,1425
2017-03-16T08:03:11.660Z,1480
2017-03-16T08:04:11.333Z,1355
2017-03-16T08:05:11.619Z,1300
2017-03-16T08:06:11.303Z,1250
2017-03-16T08:07:11.594Z,1245
2017-03-16T08:08:11.295Z,1200
2017-03-16T08:09:11.542Z,1180
2017-03-16T08:10:11.249Z,1195
2017-03-16T08:11:11.215Z,1445
2017-03-16T08:12:11.214Z,2635
2017-03-16T08:13:11.497Z,1800
2017-03-16T08:14:11.509Z,2410
2017-03-16T08:15:11.476Z,2145
2017-03-16T08:16:11.449Z,1565
2017-03-16T08:17:11.432Z,1520
2017-03-16T08:18:11.412Z,1460
2017-03-16T08:19:11.413Z,1415
2017-03-16T08:20:11.087Z,1380
2017-03-16T08:21:11.392Z,1380
2017-03-16T08:22:11.389Z,1385
2017-03-16T08:23:11.058Z,1430
2017-03-16T08:24:11.338Z,1400
2017-03-16T08:25:10.729Z,1330
2017-03-16T08:26:11.324Z,1320
2017-03-16T08:27:10.988Z,1300
2017-03-16T08:28:10.973Z,1295
2017-03-16T08:29:10.664Z,1310
2017-03-16T08:30:10.947Z,1350
2017-03-16T08:31:11.243Z,1445
2017-03-16T08:32:11.211Z,1405
2017-03-16T08:33:11.185Z,1420
2017-03-16T08:34:11.191Z,1445
2017-03-16T08:35:10.851Z,1500
2017-03-16T08:36:11.158Z,1605
2017-03-16T08:37:10.849Z,1830
2017-03-16T08:38:11.137Z,1895
2017-03-16T08:39:11.113Z,1945
2017-03-16T08:40:11.085Z,1940
2017-03-16T08:41:11.098Z,1910
2017-03-16T08:42:11.076Z,1835
2017-03-16T08:43:11.050Z,1740
2017-03-16T08:44:11.028Z,1695
2017-03-16T08:45:10.741Z,1660
2017-03-16T08:46:10.400Z,1655
2017-03-16T08:47:10.825Z,1675
2017-03-16T08:48:10.687Z,1715
2017-03-16T08:49:10.715Z,1745
2017-03-16T08:50:10.651Z,1730
2017-03-16T08:51:10.945Z,1775
2017-03-16T08:52:10.635Z,1730
2017-03-16T08:53:10.612Z,1555
2017-03-16T08:54:10.605Z,1485
2017-03-16T08:55:10.895Z,1580
2017-03-16T08:56:10.886Z,1545
2017-03-16T08:57:10.860Z,1785
2017-03-16T08:58:10.560Z,2110
2017-03-16T08:59:10.831Z,2280
2017-03-16T09:00:10.575Z,2035
2017-03-16T09:01:10.830Z,1675
2017-03-16T09:02:10.525Z,3230
2017-03-16T09:03:10.806Z,1625
2017-03-16T09:04:10.767Z,1410
2017-03-16T09:05:09.884Z,1405
2017-03-16T09:06:10.772Z,2410
2017-03-16T09:07:10.732Z,1970
2017-03-16T09:08:10.730Z,3200
2017-03-16T09:09:10.711Z,2030
2017-03-16T09:10:10.395Z,1730
2017-03-16T09:11:10.695Z,1855
2017-03-16T09:12:10.399Z,2795
2017-03-16T09:13:10.384Z,3030
2017-03-16T09:14:10.669Z,3625
2017-03-16T09:15:10.357Z,2475
2017-03-16T09:16:10.363Z,3595
2017-03-16T09:17:10.631Z,3235
2017-03-16T09:18:10.323Z,2020
2017-03-16T09:19:10.305Z,2615
2017-03-16T09:20:10.317Z,1990
2017-03-16T09:21:10.610Z,2780
2017-03-16T09:22:10.263Z,3290
2017-03-16T09:23:10.568Z,3645
2017-03-16T09:24:10.567Z,4125
2017-03-16T09:25:10.257Z,3290
2017-03-16T09:26:10.249Z,3500
2017-03-16T09:27:10.243Z,2680
2017-03-16T09:28:10.520Z,3330
2017-03-16T09:29:10.502Z,3465
2017-03-16T09:30:10.515Z,3810
2017-03-16T09:31:10.503Z,3315
2017-03-16T09:32:10.477Z,2520
2017-03-16T09:33:10.152Z,2045
2017-03-16T09:34:10.153Z,1945
2017-03-16T09:35:09.553Z,2030
2017-03-16T09:36:10.116Z,2245
2017-03-16T09:37:10.118Z,3170
2017-03-16T09:38:09.797Z,3660
2017-03-16T09:39:09.788Z,3380
2017-03-16T09:40:09.771Z,3055
2017-03-16T09:41:10.399Z,2975
2017-03-16T09:42:10.074Z,3030
2017-03-16T09:43:10.362Z,2845
2017-03-16T09:44:09.736Z,2735
2017-03-16T09:45:09.430Z,2930
2017-03-16T09:46:09.704Z,3090
2017-03-16T09:47:09.716Z,3190
2017-03-16T09:48:09.695Z,3265
2017-03-16T09:49:10.305Z,3295
2017-03-16T09:50:09.967Z,3150
2017-03-16T09:51:10.290Z,2780
2017-03-16T09:52:09.957Z,2790
2017-03-16T09:53:09.937Z,3355
2017-03-16T09:54:09.938Z,3620
2017-03-16T09:55:09.938Z,3545
2017-03-16T09:56:10.209Z,2910
2017-03-16T09:57:10.220Z,2975
2017-03-16T09:58:10.188Z,3340
2017-03-16T09:59:10.195Z,3180
2017-03-16T10:00:09.986Z,2540
2017-03-16T10:01:10.172Z,3345
2017-03-16T10:02:09.570Z,3565
2017-03-16T10:03:09.859Z,3070
2017-03-16T10:04:09.838Z,3505
2017-03-16T10:05:09.813Z,3650
2017-03-16T10:06:10.110Z,3895
2017-03-16T10:07:09.815Z,3580
2017-03-16T10:08:09.802Z,3770
2017-03-16T10:09:09.493Z,3945
2017-03-16T10:10:09.491Z,3385
2017-03-16T10:11:09.771Z,3135
2017-03-16T10:12:09.772Z,3560
2017-03-16T10:13:09.754Z,3335
2017-03-16T10:14:10.034Z,2630
2017-03-16T10:15:10.046Z,2240
2017-03-16T10:16:09.753Z,2145
2017-03-16T10:17:10.036Z,2320
2017-03-16T10:18:09.731Z,2590
2017-03-16T10:19:10.017Z,2785
2017-03-16T10:20:09.406Z,3145
2017-03-16T10:21:10.000Z,3200
2017-03-16T10:22:09.676Z,2905
2017-03-16T10:23:09.714Z,2970
2017-03-16T10:24:09.689Z,2760
2017-03-16T10:25:09.358Z,3005
2017-03-16T10:26:09.941Z,3115
2017-03-16T10:27:09.657Z,2880
2017-03-16T10:28:09.637Z,2935
2017-03-16T10:29:09.669Z,3165
2017-03-16T10:30:09.632Z,3140
2017-03-16T10:31:09.926Z,2910
2017-03-16T10:32:09.904Z,2705
2017-03-16T10:33:09.911Z,2410
2017-03-16T10:34:09.602Z,2985
2017-03-16T10:35:09.893Z,3640
2017-03-16T10:36:09.898Z,3230
2017-03-16T10:37:09.869Z,2800
2017-03-16T10:38:09.865Z,3095
2017-03-16T10:39:09.872Z,3510
2017-03-16T10:40:09.550Z,3265
2017-03-16T10:41:09.853Z,3035
2017-03-16T10:42:09.850Z,3635
2017-03-16T10:43:09.854Z,3530
2017-03-16T10:44:09.846Z,3180
2017-03-16T10:45:09.524Z,3185
2017-03-16T10:46:09.830Z,3680
2017-03-16T10:47:09.812Z,3460
2017-03-16T10:48:09.812Z,3080
2017-03-16T10:49:09.792Z,2855
2017-03-16T10:50:09.479Z,2885
2017-03-16T10:51:09.771Z,3020
2017-03-16T10:52:09.799Z,3345
2017-03-16T10:53:09.770Z,3205
2017-03-16T10:54:09.753Z,3150
2017-03-16T10:55:09.755Z,3310
2017-03-16T10:56:09.745Z,3340
2017-03-16T10:57:09.740Z,3265
2017-03-16T10:58:09.712Z,3400
2017-03-16T10:59:09.712Z,3175
2017-03-16T11:00:09.728Z,2920
2017-03-16T11:01:09.711Z,2830
2017-03-16T11:02:09.412Z,3120
2017-03-16T11:03:09.687Z,3405
2017-03-16T11:04:09.685Z,3275
2017-03-16T11:05:09.696Z,3040
2017-03-16T11:06:09.077Z,3065
2017-03-16T11:07:09.656Z,3065
2017-03-16T11:08:09.646Z,3250
2017-03-16T11:09:09.657Z,3655
2017-03-16T11:10:09.639Z,3180
2017-03-16T11:11:09.644Z,2965
2017-03-16T11:12:09.631Z,3100
2017-03-16T11:13:09.323Z,2860
2017-03-16T11:14:09.317Z,3480
2017-03-16T11:15:09.301Z,3555
2017-03-16T11:16:09.306Z,3120
2017-03-16T11:17:09.610Z,2970
2017-03-16T11:18:09.583Z,3515
2017-03-16T11:19:09.585Z,3755
2017-03-16T11:20:09.589Z,2840
2017-03-16T11:21:09.570Z,2670
2017-03-16T11:22:09.574Z,2800
2017-03-16T11:23:09.548Z,2915
2017-03-16T11:24:09.248Z,2815
2017-03-16T11:25:09.555Z,2885
2017-03-16T11:26:09.232Z,3290
2017-03-16T11:27:09.519Z,3985
2017-03-16T11:28:09.200Z,3430
2017-03-16T11:29:09.513Z,3210
2017-03-16T11:30:08.892Z,3705
2017-03-16T11:31:09.487Z,3695
2017-03-16T11:32:09.482Z,3690
2017-03-16T11:33:09.466Z,3800
2017-03-16T11:34:09.468Z,3630
2017-03-16T11:35:09.456Z,3385
2017-03-16T11:36:09.118Z,3275
2017-03-16T11:37:09.408Z,3360
2017-03-16T11:38:09.404Z,3200
2017-03-16T11:39:09.383Z,3360
2017-03-16T11:40:09.385Z,3305
2017-03-16T11:41:09.364Z,3325
2017-03-16T11:42:09.076Z,3350
2017-03-16T11:43:09.355Z,2990
2017-03-16T11:44:09.363Z,3735
2017-03-16T11:45:09.336Z,4495
2017-03-16T11:46:08.709Z,3885
2017-03-16T11:47:09.313Z,3395
2017-03-16T11:48:09.010Z,3465
2017-03-16T11:49:09.294Z,3390
2017-03-16T11:50:09.273Z,3675
2017-03-16T11:51:09.269Z,3605
2017-03-16T11:52:08.964Z,3665
2017-03-16T11:53:08.946Z,3460
2017-03-16T11:54:09.226Z,3070
2017-03-16T11:55:09.251Z,3200
2017-03-16T11:56:09.230Z,4065
2017-03-16T11:57:09.215Z,4555
2017-03-16T11:58:08.908Z,4530
2017-03-16T11:59:09.186Z,4035
2017-03-16T12:00:09.168Z,3945
2017-03-16T12:01:09.176Z,4330
2017-03-16T12:02:09.145Z,3875
2017-03-16T12:03:09.150Z,3795
2017-03-16T12:04:09.145Z,4060
2017-03-16T12:05:08.520Z,3815
2017-03-16T12:06:08.809Z,3980
2017-03-16T12:07:09.116Z,3655
2017-03-16T12:08:09.101Z,3595
2017-03-16T12:09:09.075Z,4095
2017-03-16T12:10:09.067Z,3750
2017-03-16T12:11:08.756Z,3340
2017-03-16T12:12:09.065Z,3175
2017-03-16T12:13:09.035Z,3445
2017-03-16T12:14:09.037Z,4130
2017-03-16T12:15:08.714Z,3570
2017-03-16T12:16:09.010Z,2910
2017-03-16T12:17:08.676Z,3345
2017-03-16T12:18:08.982Z,4120
2017-03-16T12:19:08.679Z,4155
2017-03-16T12:20:08.947Z,3325
2017-03-16T12:21:08.942Z,3065
2017-03-16T12:22:08.647Z,3275
2017-03-16T12:23:08.609Z,3170
2017-03-16T12:24:08.902Z,3730
2017-03-16T12:25:08.889Z,4425
2017-03-16T12:26:08.603Z,3860
2017-03-16T12:27:08.904Z,3195
2017-03-16T12:28:08.558Z,3375
2017-03-16T12:29:08.853Z,4085
2017-03-16T12:30:08.552Z,3970
2017-03-16T12:31:08.505Z,3425
2017-03-16T12:32:08.539Z,3275
2017-03-16T12:33:08.788Z,4140
2017-03-16T12:34:08.478Z,4685
2017-03-16T12:35:08.804Z,3290
2017-03-16T12:36:08.465Z,3165
2017-03-16T12:37:08.756Z,3460
2017-03-16T12:38:08.736Z,3680
2017-03-16T12:39:08.445Z,3865
2017-03-16T12:40:08.726Z,3300
2017-03-16T12:41:08.718Z,3085
2017-03-16T12:42:08.406Z,3335
2017-03-16T12:43:08.676Z,3230
2017-03-16T12:44:08.664Z,2990
2017-03-16T12:45:08.369Z,2890
2017-03-16T12:46:08.660Z,2770
2017-03-16T12:47:08.364Z,2785
2017-03-16T12:48:08.622Z,2890
2017-03-16T12:49:08.636Z,2870
2017-03-16T12:50:08.308Z,2775
2017-03-16T12:51:08.588Z,2995
2017-03-16T12:52:08.294Z,2885
2017-03-16T12:53:08.278Z,2755
2017-03-16T12:54:08.270Z,2700
2017-03-16T12:55:08.259Z,2615
2017-03-16T12:56:08.238Z,2540
2017-03-16T12:57:08.527Z,2600
2017-03-16T12:58:07.935Z,2805
2017-03-16T12:59:08.512Z,2725
2017-03-16T13:00:08.225Z,2565
2017-03-16T13:01:08.234Z,2515
2017-03-16T13:02:08.463Z,2460
2017-03-16T13:03:08.192Z,2525
2017-03-16T13:04:08.178Z,2695
2017-03-16T13:05:08.477Z,2610
2017-03-16T13:06:08.453Z,2430
2017-03-16T13:07:08.110Z,2435
2017-03-16T13:08:08.426Z,2380
2017-03-16T13:09:08.428Z,2550
2017-03-16T13:10:08.415Z,2660
2017-03-16T13:11:08.093Z,2425
2017-03-16T13:12:07.488Z,2235
2017-03-16T13:13:08.057Z,2270
2017-03-16T13:14:08.043Z,2485
2017-03-16T13:15:08.052Z,2330
2017-03-16T13:16:08.372Z,2300
2017-03-16T13:17:08.350Z,3005
2017-03-16T13:18:08.300Z,2615
2017-03-16T13:19:08.312Z,2135
2017-03-16T13:20:07.710Z,2215
2017-03-16T13:21:08.000Z,2395
2017-03-16T13:22:07.682Z,2490
2017-03-16T13:23:08.281Z,2415
2017-03-16T13:24:08.283Z,2230
2017-03-16T13:25:08.253Z,2185
2017-03-16T13:26:07.638Z,2360
2017-03-16T13:27:07.939Z,2545
2017-03-16T13:28:07.931Z,2505
2017-03-16T13:29:08.210Z,2225
2017-03-16T13:30:07.907Z,2130
2017-03-16T13:31:07.890Z,2255
2017-03-16T13:32:07.579Z,2410
2017-03-16T13:33:08.180Z,2420
2017-03-16T13:34:08.169Z,2200
2017-03-16T13:35:07.855Z,2075
2017-03-16T13:36:07.851Z,2035
2017-03-16T13:37:08.126Z,2075
2017-03-16T13:38:08.132Z,2005
2017-03-16T13:39:08.097Z,2030
2017-03-16T13:40:07.514Z,2125
2017-03-16T13:41:08.092Z,2155
2017-03-16T13:42:07.493Z,2390
2017-03-16T13:43:08.074Z,2460
2017-03-16T13:44:07.749Z,2360
2017-03-16T13:45:07.737Z,2445
2017-03-16T13:46:08.041Z,2460
2017-03-16T13:47:07.447Z,2435
2017-03-16T13:48:07.716Z,2370
2017-03-16T13:49:07.707Z,2255
2017-03-16T13:50:07.406Z,2235
2017-03-16T13:51:07.683Z,2230
2017-03-16T13:52:07.657Z,2195
2017-03-16T13:53:07.965Z,2170
2017-03-16T13:54:07.651Z,2255
2017-03-16T13:55:07.355Z,2385